Saturday, December 20, 2014
15:48 UTC
  |  Log In   |  Register Free
Airport Search:

Modesto City-Co-Harry Sham Fld Airport
(KMOD)

FAA data valid effective November 13, 2014 - January 08, 2015 (unless otherwise noted).

 
 
 
 
 
 
 
 
 
 
 
 
 
 

Current Aviation Weather for Modesto City-Co-Harry Sham Fld Airport (KMOD)

The most recent METAR observation for KMOD was updated at: 2116
METAR Summary (Translated METAR)
KMOD
182053Z 14007KT 10SM CLR 15/08 A3017 RMK AO2 SLP216 T01500078 58005
KSCK
182055Z 19006KT 10SM SCT027 16/09 A3016 RMK AO2 SLP211 T01560094 58005
(21 nm NW from KMOD)
KMER
182045Z 15006KT 10SM SKC 16/11 A3018
(23.6 nm SE from KMOD)
TAF Summary (Translated TAF)
KSCK
(21 nm NW from KMOD)
201130Z 2012/2112 12008KT 3SM -RA BR OVC025 TEMPO 2012/2015 2SM BR BKN005 OVC015 FM201500 14008KT P6SM OVC025 FM201900 14007KT 4SM -RA BKN008 OVC015 FM202200 14006KT P6SM BKN030
KMER
(23.6 nm SE from KMOD)
201130Z 2012/2112 10005KT P6SM VCSH SCT030 BKN045 OVC060 FM201500 09005KT P6SM BKN035 OVC045 FM201800 09005KT 4SM BR SCT015 BKN035 TEMPO 2018/2022 3SM BR BKN015 FM210300 VRB03KT 3SM BR SCT005 BKN070 TEMPO 2108/2112 1SM BR BKN005
  Airport Weather Conditions for KMOD

 Current Weather at MOD
53° F
Overcast
East winds at 6.9 mph
MOD NOAA Radar

Pressure: 30.16 in
Humidity: 89%
Wind: East at 6.9 MPH (6 KT)
Dew Point: 50.0°F
Visibility: 8.00 mi


Airport Weather Forecast for KMOD

Translated METAR and TAF for KMOD
Translated METAR for KMOD (1549 UTC 20 December 2014)
found at http://aviationweather.gov/adds/metars/
 
METAR text: KMOD 201534Z 00000KT 3SM -RA BR BKN007 OVC012 12/11 A3018 RMK AO2 RAB12 CIG 005V010 P0001 T01170106
Conditions at: KMOD (MODESTO , CA, US) observed 1534 UTC 20 December 2014
Temperature: 11.7°C (53°F)
Dewpoint: 10.6°C (51°F) [RH = 93%]
Pressure (altimeter): 30.18 inches Hg (1022.1 mb)
Winds: calm
Visibility: 3 miles (5 km)
Ceiling: 700 feet AGL
Clouds: broken clouds at 700 feet AGL
overcast cloud deck at 1200 feet AGL
Weather: -RA BR  (light rain, mist)
Translated TAF for KMOD

There is no translated TAF available for this airport

Find All Airport Services Find A Hotel Find A Rental Car Find A Golf Course Find A Restaurant $100 Hamburger



FBO's on the Field
FBO Company Facility Photos Services Transportation Aviation Fuel Prices: Prices include tax
Catering Weather Repair Courtesy Rental Type 100LL JetA JetA+ MOGAS 8087
 
Sky Trek Aviation

This FBO has not yet been rated
FS:Avfuel
Last Updated: Dec-19
Login to update fuel prices
SS:
Contact Sky Trek AviationMore FBO Information
 
Add another FBO Facility Photos Catering Weather Repair Courtesy Rental Type 100LL JetA JetA+ MOGAS 8087
Services Transportation Aviation Fuel Prices: Prices include tax


model-print
model-print
model-print
model-print